Time;durP1;ratioP1;P1;durP2;ratioP2;P2;SDS_P1;SDS_P2;PMS_P1;PMS_P2;Temp;Humidity;BMP_temperature;BMP_pressure;BME280_temperature;BME280_humidity;BME280_pressure;Samples;Min_cycle;Max_cycle;Signal;HPM_P1;HPM_P2
2022/03/01 00:01:55;;;;;;;12.80;7.97;;;;;;;-1.23;78.48;99443.28;5113533;28;20223;-69
2022/03/01 00:04:22;;;;;;;13.03;7.90;;;;;;;-1.25;78.62;99448.47;5113208;28;20562;-68
2022/03/01 00:06:49;;;;;;;12.10;7.33;;;;;;;-1.34;79.11;99445.03;5113270;28;20218;-69
2022/03/01 00:09:15;;;;;;;14.20;8.30;;;;;;;-1.43;80.28;99443.31;5113462;28;20235;-68
2022/03/01 00:11:41;;;;;;;11.87;7.67;;;;;;;-1.53;80.62;99439.00;5113183;28;20238;-69
2022/03/01 00:14:08;;;;;;;14.90;8.07;;;;;;;-1.66;82.34;99442.44;5105420;28;20237;-69
2022/03/01 00:16:35;;;;;;;14.10;8.10;;;;;;;-1.68;83.22;99440.72;5111854;28;20213;-68
2022/03/01 00:19:03;;;;;;;12.40;8.10;;;;;;;-1.70;83.50;99434.69;5113493;28;20633;-69
2022/03/01 00:21:30;;;;;;;14.17;8.37;;;;;;;-1.65;83.83;99438.16;5110919;28;20583;-68
2022/03/01 00:23:57;;;;;;;16.20;8.43;;;;;;;-1.66;84.53;99446.78;5113186;28;20217;-68
2022/03/01 00:26:23;;;;;;;12.93;7.83;;;;;;;-1.66;85.21;99437.28;5113094;28;20210;-69
2022/03/01 00:28:50;;;;;;;18.27;9.10;;;;;;;-1.64;85.53;99439.88;5113428;28;20217;-69
2022/03/01 00:31:16;;;;;;;15.90;8.37;;;;;;;-1.62;85.71;99438.13;5112917;28;20225;-68
2022/03/01 00:33:43;;;;;;;15.27;7.87;;;;;;;-1.62;85.55;99435.53;5113163;28;20220;-69
2022/03/01 00:36:11;;;;;;;15.30;8.33;;;;;;;-1.60;85.68;99436.44;5113202;28;20216;-68
2022/03/01 00:38:37;;;;;;;13.03;8.40;;;;;;;-1.58;85.23;99439.88;5113119;28;20222;-69
2022/03/01 00:41:04;;;;;;;14.93;9.30;;;;;;;-1.63;85.92;99442.47;5116474;28;20215;-69
2022/03/01 00:43:30;;;;;;;13.73;8.30;;;;;;;-1.71;86.64;99443.34;5115815;28;20213;-68
2022/03/01 00:45:57;;;;;;;13.43;8.57;;;;;;;-1.72;86.81;99441.63;5117373;28;20210;-69
2022/03/01 00:48:23;;;;;;;13.83;8.57;;;;;;;-1.72;86.57;99441.63;5117445;28;20212;-68
2022/03/01 00:50:50;;;;;;;15.53;8.47;;;;;;;-1.80;86.84;99435.53;5117323;28;20217;-68
2022/03/01 00:53:18;;;;;;;16.53;9.27;;;;;;;-1.83;86.68;99432.97;5114737;28;20589;-68
2022/03/01 00:55:44;;;;;;;13.83;9.00;;;;;;;-1.87;86.93;99426.94;5117175;28;20207;-69
2022/03/01 00:58:10;;;;;;;13.73;8.67;;;;;;;-1.94;87.53;99432.09;5116868;28;20690;-69
2022/03/01 01:00:37;;;;;;;15.40;8.83;;;;;;;-2.04;88.08;99422.56;5116715;28;20217;-68
2022/03/01 01:03:03;;;;;;;17.97;8.77;;;;;;;-2.10;88.27;99428.63;5116884;28;20235;-69
2022/03/01 01:05:30;;;;;;;15.10;9.20;;;;;;;-2.18;88.10;99421.72;5116957;28;20217;-69
2022/03/01 01:07:57;;;;;;;16.87;9.07;;;;;;;-2.23;88.99;99426.00;5116899;28;20210;-68
2022/03/01 01:10:25;;;;;;;14.87;8.93;;;;;;;-2.26;88.34;99423.44;5115218;28;20295;-69
2022/03/01 01:12:51;;;;;;;13.83;7.97;;;;;;;-2.34;89.14;99428.59;5116613;28;20241;-69
2022/03/01 01:15:19;;;;;;;17.13;8.20;;;;;;;-2.34;88.38;99414.78;5116887;28;20221;-69
2022/03/01 01:17:46;;;;;;;14.80;8.00;;;;;;;-2.33;88.27;99419.94;5116779;28;20212;-69
2022/03/01 01:20:15;;;;;;;14.00;8.63;;;;;;;-2.39;88.02;99419.09;5116460;28;20214;-68
2022/03/01 01:22:42;;;;;;;14.57;8.50;;;;;;;-2.45;88.75;99414.75;5116683;28;20214;-69
2022/03/01 01:25:11;;;;;;;13.27;8.20;;;;;;;-2.62;90.27;99413.00;5116587;28;20577;-69
2022/03/01 01:27:41;;;;;;;12.73;8.23;;;;;;;-2.77;91.96;99410.34;5112075;28;20228;-69
2022/03/01 01:30:09;;;;;;;13.70;9.13;;;;;;;-2.82;92.72;99412.06;5114703;28;20694;-68
2022/03/01 01:32:36;;;;;;;14.67;8.37;;;;;;;-2.84;93.54;99411.19;5113678;28;20245;-68
2022/03/01 01:35:03;;;;;;;14.07;8.57;;;;;;;-2.79;93.19;99409.47;5114808;28;20237;-69
2022/03/01 01:37:29;;;;;;;14.77;8.13;;;;;;;-2.76;93.02;99401.75;5116466;28;20239;-69
2022/03/01 01:39:56;;;;;;;14.33;8.20;;;;;;;-2.74;91.72;99394.84;5116318;28;20217;-68
2022/03/01 01:42:22;;;;;;;17.37;9.00;;;;;;;-2.74;90.85;99394.84;5115928;28;20675;-68
2022/03/01 01:44:50;;;;;;;15.57;9.03;;;;;;;-2.77;90.84;99406.03;5116364;28;20218;-68
2022/03/01 01:47:17;;;;;;;20.70;9.33;;;;;;;-2.76;90.80;99409.50;5115922;28;20214;-68
2022/03/01 01:49:43;;;;;;;13.97;8.00;;;;;;;-2.67;88.76;99392.28;5116174;28;20206;-68
2022/03/01 01:52:10;;;;;;;13.13;8.47;;;;;;;-2.68;89.00;99394.84;5115153;28;20237;-69
2022/03/01 01:54:36;;;;;;;14.03;8.50;;;;;;;-2.77;89.98;99402.56;5115860;28;20206;-69
2022/03/01 01:57:13;;;;;;;15.40;8.63;;;;;;;-2.99;91.78;99409.38;5115623;28;20217;-68
2022/03/01 01:59:40;;;;;;;15.00;8.87;;;;;;;-3.01;92.92;99412.84;5106429;28;20218;-69
2022/03/01 02:02:10;;;;;;;15.77;9.60;;;;;;;-2.85;92.64;99407.75;5111472;28;20218;-68
2022/03/01 02:04:36;;;;;;;14.83;8.43;;;;;;;-2.74;91.04;99408.66;5111877;28;20221;-69
2022/03/01 02:07:03;;;;;;;14.97;9.20;;;;;;;-2.59;90.71;99400.03;5102695;28;20210;-68
2022/03/01 02:09:29;;;;;;;14.73;9.53;;;;;;;-2.64;91.38;99396.59;5104912;28;20703;-68
2022/03/01 02:11:56;;;;;;;20.50;9.93;;;;;;;-2.76;92.10;99397.41;5115269;28;20213;-68
2022/03/01 02:14:22;;;;;;;14.73;8.97;;;;;;;-2.85;93.14;99401.69;5115277;28;20224;-68
2022/03/01 02:16:49;;;;;;;16.90;9.03;;;;;;;-2.90;93.80;99401.69;5115506;28;20199;-69
2022/03/01 02:19:17;;;;;;;16.40;8.10;;;;;;;-3.01;94.14;99399.94;5115190;28;20213;-68
2022/03/01 02:21:50;;;;;;;17.70;9.10;;;;;;;-3.03;94.32;99401.63;5115349;28;20239;-68
2022/03/01 02:24:17;;;;;;;15.83;9.70;;;;;;;-3.06;94.43;99396.44;5115402;28;20213;-68
2022/03/01 02:26:44;;;;;;;15.17;8.67;;;;;;;-3.05;95.10;99398.19;5113608;28;20210;-68
2022/03/01 02:29:10;;;;;;;17.93;9.17;;;;;;;-2.98;94.43;99389.56;5115333;28;20222;-69
2022/03/01 02:31:37;;;;;;;14.53;9.10;;;;;;;-3.05;94.28;99387.84;5115255;28;20688;-69
2022/03/01 02:34:04;;;;;;;14.70;9.10;;;;;;;-3.03;94.68;99391.28;5115212;28;20244;-68
2022/03/01 02:36:31;;;;;;;16.37;9.13;;;;;;;-3.07;94.49;99389.56;5115258;28;20210;-69
2022/03/01 02:38:59;;;;;;;16.63;9.80;;;;;;;-3.10;94.62;99384.34;5114841;28;20697;-68
2022/03/01 02:41:26;;;;;;;15.07;8.60;;;;;;;-3.06;94.05;99381.78;5112507;28;20210;-69
2022/03/01 02:43:53;;;;;;;15.80;9.23;;;;;;;-3.01;93.28;99379.25;5110673;28;20216;-69
2022/03/01 02:46:19;;;;;;;16.37;9.43;;;;;;;-3.12;93.96;99386.94;5114971;28;20217;-69
2022/03/01 02:48:46;;;;;;;14.20;9.10;;;;;;;-3.20;94.51;99388.63;5115023;28;20210;-69
2022/03/01 02:51:13;;;;;;;12.60;8.07;;;;;;;-3.30;94.85;99388.56;5114882;28;20214;-68
2022/03/01 02:53:39;;;;;;;14.10;8.60;;;;;;;-3.37;95.06;99394.56;5113216;28;20246;-68
2022/03/01 02:56:08;;;;;;;14.90;8.87;;;;;;;-3.47;96.31;99398.81;5114550;28;20210;-68
2022/03/01 02:58:34;;;;;;;16.13;9.33;;;;;;;-3.46;96.91;99386.75;5114804;28;20213;-69
2022/03/01 03:01:00;;;;;;;15.07;8.43;;;;;;;-3.48;97.49;99385.91;5114505;28;20212;-68
2022/03/01 03:03:27;;;;;;;16.00;8.37;;;;;;;-3.49;98.33;99389.34;5113778;28;20220;-68
2022/03/01 03:05:53;;;;;;;16.17;9.07;;;;;;;-3.44;98.34;99387.63;5114736;28;20206;-68
2022/03/01 03:08:20;;;;;;;16.57;9.37;;;;;;;-3.32;96.78;99387.69;5114354;28;20217;-68
2022/03/01 03:10:46;;;;;;;15.63;9.47;;;;;;;-3.22;95.04;99377.41;5114154;28;20233;-68
2022/03/01 03:13:14;;;;;;;15.37;8.70;;;;;;;-3.17;94.16;99377.44;5114491;28;20243;-68
2022/03/01 03:15:41;;;;;;;15.57;8.80;;;;;;;-3.32;94.44;99382.50;5114095;28;20214;-68
2022/03/01 03:18:08;;;;;;;15.07;8.83;;;;;;;-3.46;95.15;99381.59;5114165;28;20669;-69
2022/03/01 03:20:34;;;;;;;15.63;9.70;;;;;;;-3.60;96.24;99388.41;5112642;28;20217;-68
2022/03/01 03:23:01;;;;;;;20.00;9.63;;;;;;;-3.66;96.75;99384.03;5113937;28;20675;-68
2022/03/01 03:25:27;;;;;;;17.67;9.43;;;;;;;-3.64;97.17;99384.94;5114289;28;20225;-69
2022/03/01 03:27:54;;;;;;;16.67;9.30;;;;;;;-3.60;97.21;99390.97;5114192;28;20214;-68
2022/03/01 03:30:21;;;;;;;18.23;9.77;;;;;;;-3.54;96.67;99388.44;5114216;28;20217;-68
2022/03/01 03:32:48;;;;;;;13.80;8.37;;;;;;;-3.58;96.83;99394.44;5114058;28;20229;-69
2022/03/01 03:35:14;;;;;;;14.57;9.03;;;;;;;-3.57;96.63;99397.03;5114138;28;20218;-69
2022/03/01 03:37:41;;;;;;;14.37;8.87;;;;;;;-3.48;96.46;99397.06;5113721;28;20220;-69
2022/03/01 03:40:08;;;;;;;16.20;8.93;;;;;;;-3.39;95.36;99393.69;5113872;28;20214;-69
2022/03/01 03:42:35;;;;;;;17.67;8.97;;;;;;;-3.43;95.54;99394.53;5113831;28;20217;-68
2022/03/01 03:45:01;;;;;;;15.83;8.63;;;;;;;-3.23;93.74;99387.75;5112217;28;20233;-68
2022/03/01 03:47:29;;;;;;;15.40;9.17;;;;;;;-3.30;94.24;99388.56;5113999;28;20221;-68
2022/03/01 03:49:56;;;;;;;17.23;9.53;;;;;;;-3.29;94.27;99390.31;5113868;28;20208;-68
2022/03/01 03:52:22;;;;;;;15.20;9.10;;;;;;;-3.27;94.90;99386.00;5113700;28;20214;-68
2022/03/01 03:54:50;;;;;;;18.20;10.03;;;;;;;-3.26;95.14;99383.44;5113590;28;20210;-68
2022/03/01 03:57:16;;;;;;;16.77;9.40;;;;;;;-3.23;95.05;99378.28;5111776;28;20317;-68
2022/03/01 03:59:43;;;;;;;15.60;8.37;;;;;;;-3.24;95.13;99380.84;5113357;28;20206;-68
2022/03/01 04:02:10;;;;;;;15.70;9.47;;;;;;;-3.13;94.40;99384.34;5113679;28;20221;-68
2022/03/01 04:04:38;;;;;;;16.10;8.90;;;;;;;-3.10;93.90;99379.19;5113696;28;20222;-68
2022/03/01 04:07:04;;;;;;;15.03;8.60;;;;;;;-3.09;93.96;99391.25;5113313;28;20244;-68
2022/03/01 04:09:31;;;;;;;15.23;8.80;;;;;;;-3.07;93.82;99386.97;5113303;28;20327;-68
2022/03/01 04:11:58;;;;;;;15.07;9.30;;;;;;;-3.08;93.49;99383.50;5111861;28;20655;-68
2022/03/01 04:14:25;;;;;;;14.17;8.90;;;;;;;-3.19;93.91;99384.34;5112988;28;20248;-68
2022/03/01 04:16:51;;;;;;;15.13;8.77;;;;;;;-3.24;93.85;99380.84;5113359;28;20206;-68
2022/03/01 04:19:18;;;;;;;14.73;8.60;;;;;;;-3.30;94.25;99381.66;5113467;28;20214;-68
2022/03/01 04:21:46;;;;;;;17.13;8.97;;;;;;;-3.32;94.53;99385.09;5111022;28;20293;-68
2022/03/01 04:24:12;;;;;;;15.07;9.07;;;;;;;-3.49;96.25;99384.16;5113386;28;20216;-71
2022/03/01 04:26:39;;;;;;;14.97;8.97;;;;;;;-3.59;96.93;99387.53;5113249;28;20213;-69
2022/03/01 04:29:05;;;;;;;16.07;8.67;;;;;;;-3.65;97.05;99380.63;5113363;28;20224;-69
2022/03/01 04:31:32;;;;;;;16.63;9.40;;;;;;;-3.67;96.98;99390.06;5113048;28;20210;-69
2022/03/01 04:33:58;;;;;;;14.83;9.17;;;;;;;-3.60;95.88;99386.66;5113223;28;20241;-68
2022/03/01 04:36:25;;;;;;;18.07;8.77;;;;;;;-3.46;94.17;99373.84;5113090;28;20223;-68
2022/03/01 04:38:53;;;;;;;13.60;8.43;;;;;;;-3.35;93.15;99369.59;5111743;28;20255;-68
2022/03/01 04:41:19;;;;;;;15.93;8.90;;;;;;;-3.32;92.85;99364.41;5113259;28;20212;-68
2022/03/01 04:43:46;;;;;;;16.37;8.17;;;;;;;-3.27;92.69;99362.72;5113308;28;20574;-68
2022/03/01 04:46:12;;;;;;;14.10;8.60;;;;;;;-3.12;92.38;99360.22;5113236;28;20283;-68
2022/03/01 04:48:39;;;;;;;12.80;8.20;;;;;;;-3.02;91.69;99365.44;5112936;28;20206;-68
2022/03/01 04:51:06;;;;;;;14.60;8.80;;;;;;;-3.03;91.68;99363.72;5112768;28;20218;-68
2022/03/01 04:53:32;;;;;;;13.90;8.33;;;;;;;-2.97;91.26;99363.72;5113102;28;20241;-68
2022/03/01 04:56:00;;;;;;;14.90;8.80;;;;;;;-2.82;89.38;99352.56;5113219;28;20209;-68
2022/03/01 04:58:26;;;;;;;14.67;8.83;;;;;;;-2.75;89.15;99352.56;5113072;28;20228;-68
2022/03/01 05:00:54;;;;;;;16.50;8.90;;;;;;;-2.73;89.40;99355.16;5113064;28;20214;-68
2022/03/01 05:03:21;;;;;;;14.87;8.57;;;;;;;-2.77;88.78;99348.25;5100449;28;20238;-68
2022/03/01 05:05:48;;;;;;;13.70;8.57;;;;;;;-2.90;90.16;99349.06;5113095;28;20214;-68
2022/03/01 05:08:14;;;;;;;13.00;8.07;;;;;;;-2.74;88.45;99345.69;5113150;28;20397;-68
2022/03/01 05:10:41;;;;;;;17.87;9.13;;;;;;;-2.71;89.02;99340.50;5112737;28;20269;-68
2022/03/01 05:13:09;;;;;;;14.73;9.30;;;;;;;-2.76;88.91;99334.47;5112256;28;20237;-67
2022/03/01 05:15:35;;;;;;;14.53;8.77;;;;;;;-2.90;89.51;99331.84;5112627;28;20214;-68
2022/03/01 05:18:01;;;;;;;14.63;8.90;;;;;;;-3.00;90.53;99339.59;5112527;28;20218;-68
2022/03/01 05:20:28;;;;;;;13.70;8.70;;;;;;;-3.10;90.85;99337.81;5112703;28;20559;-68
2022/03/01 05:22:55;;;;;;;15.20;9.03;;;;;;;-3.24;91.55;99342.91;5112929;28;20218;-68
2022/03/01 05:25:23;;;;;;;16.40;9.67;;;;;;;-3.39;92.27;99342.88;5112926;28;20214;-68
2022/03/01 05:27:52;;;;;;;15.63;10.00;;;;;;;-3.55;93.08;99343.63;5115413;28;20245;-68
2022/03/01 05:30:21;;;;;;;16.20;8.77;;;;;;;-3.62;93.69;99341.88;5114933;28;20214;-68
2022/03/01 05:32:50;;;;;;;15.90;9.10;;;;;;;-3.77;95.32;99351.25;5116327;28;20640;-68
2022/03/01 05:35:19;;;;;;;16.67;9.90;;;;;;;-3.61;93.47;99355.69;5116180;28;20632;-68
2022/03/01 05:37:49;;;;;;;16.23;9.27;;;;;;;-3.62;93.60;99351.38;5116237;28;20221;-68
2022/03/01 05:40:17;;;;;;;16.90;9.37;;;;;;;-3.67;93.34;99348.72;5116526;28;20241;-68
2022/03/01 05:42:43;;;;;;;14.90;8.43;;;;;;;-3.77;94.37;99351.25;5116047;28;20210;-68
2022/03/01 05:45:11;;;;;;;14.17;8.80;;;;;;;-3.85;94.69;99347.78;5116222;28;20213;-68
2022/03/01 05:47:38;;;;;;;14.10;8.23;;;;;;;-3.89;94.60;99348.59;5116150;28;20218;-68
2022/03/01 05:50:06;;;;;;;15.97;9.17;;;;;;;-3.86;94.42;99359.81;5115938;28;20221;-68
2022/03/01 05:52:32;;;;;;;18.30;9.70;;;;;;;-3.82;93.61;99353.81;5104909;28;20217;-68
2022/03/01 05:54:59;;;;;;;14.90;9.17;;;;;;;-3.76;92.42;99356.44;5113962;28;20234;-68
2022/03/01 05:57:28;;;;;;;17.10;9.40;;;;;;;-3.66;91.63;99355.63;5116092;28;20224;-68
2022/03/01 05:59:55;;;;;;;16.27;9.60;;;;;;;-3.70;91.61;99358.19;5115723;28;20243;-68
2022/03/01 06:02:21;;;;;;;15.27;9.37;;;;;;;-3.90;93.27;99367.53;5104982;28;20212;-68
2022/03/01 06:04:49;;;;;;;16.33;9.43;;;;;;;-4.00;94.46;99378.63;5116024;28;20232;-68
2022/03/01 06:07:15;;;;;;;13.87;8.60;;;;;;;-3.96;94.68;99378.69;5115717;28;20224;-68
2022/03/01 06:09:42;;;;;;;17.27;10.07;;;;;;;-3.91;94.10;99376.13;5115690;28;20234;-68
2022/03/01 06:12:09;;;;;;;16.03;9.57;;;;;;;-3.70;92.58;99377.16;5115373;28;20218;-68
2022/03/01 06:14:36;;;;;;;17.13;9.33;;;;;;;-3.58;91.25;99378.94;5115477;28;20342;-68
2022/03/01 06:17:02;;;;;;;14.57;9.37;;;;;;;-3.60;91.51;99380.66;5115548;28;20202;-68
2022/03/01 06:19:30;;;;;;;14.73;8.97;;;;;;;-3.55;90.99;99389.31;5115572;28;20210;-68
2022/03/01 06:21:58;;;;;;;15.30;8.37;;;;;;;-3.63;91.68;99385.78;5113967;28;20591;-68
2022/03/01 06:24:24;;;;;;;17.30;8.90;;;;;;;-3.64;92.12;99392.69;5115681;28;20217;-68
2022/03/01 06:26:51;;;;;;;17.13;8.87;;;;;;;-3.51;91.26;99385.84;5115205;28;20214;-67
2022/03/01 06:29:18;;;;;;;13.97;8.47;;;;;;;-3.42;91.51;99391.09;5115437;28;20233;-70
2022/03/01 06:31:44;;;;;;;18.73;9.67;;;;;;;-3.43;91.96;99385.06;5115108;28;20670;-69
2022/03/01 06:34:11;;;;;;;14.77;9.43;;;;;;;-3.45;92.92;99389.34;5115238;28;20245;-70
2022/03/01 06:36:37;;;;;;;15.20;9.30;;;;;;;-3.49;93.94;99389.34;5115180;28;20214;-70
2022/03/01 06:39:05;;;;;;;18.23;9.33;;;;;;;-3.60;95.12;99390.97;5111810;28;20210;-69
2022/03/01 06:41:31;;;;;;;17.00;9.57;;;;;;;-3.53;94.64;99398.78;5115051;28;20216;-69
2022/03/01 06:43:58;;;;;;;15.33;9.37;;;;;;;-3.50;95.36;99403.09;5115022;28;20210;-69
2022/03/01 06:46:25;;;;;;;16.53;9.03;;;;;;;-3.44;95.70;99408.28;5114499;28;20304;-68
2022/03/01 06:48:51;;;;;;;14.13;9.27;;;;;;;-3.41;96.31;99414.38;5113384;28;20206;-68
2022/03/01 06:51:18;;;;;;;17.67;9.47;;;;;;;-3.42;97.50;99422.09;5114910;28;20217;-68
2022/03/01 06:53:44;;;;;;;14.93;9.57;;;;;;;-3.38;97.98;99424.72;5114668;28;20776;-68
2022/03/01 06:56:12;;;;;;;16.70;9.50;;;;;;;-3.20;97.97;99421.34;5114877;28;20246;-69
2022/03/01 06:58:39;;;;;;;16.23;9.47;;;;;;;-2.90;96.12;99424.97;5114448;28;20218;-68
2022/03/01 07:01:05;;;;;;;19.17;9.63;;;;;;;-2.65;92.99;99428.50;5114863;28;20202;-68
2022/03/01 07:03:34;;;;;;;17.73;9.87;;;;;;;-2.50;91.90;99437.16;5114592;28;20667;-69
2022/03/01 07:06:00;;;;;;;17.23;9.73;;;;;;;-2.22;89.36;99427.72;5114649;28;20221;-69
2022/03/01 07:08:27;;;;;;;17.13;9.30;;;;;;;-2.06;88.62;99429.50;5114378;28;20587;-69
2022/03/01 07:10:53;;;;;;;16.93;9.67;;;;;;;-1.89;87.00;99435.56;5114731;28;20248;-68
2022/03/01 07:13:21;;;;;;;15.90;9.40;;;;;;;-1.70;87.30;99429.50;5112928;28;20216;-69
2022/03/01 07:15:48;;;;;;;15.13;9.53;;;;;;;-1.53;85.66;99427.78;5114607;28;20588;-70
2022/03/01 07:18:14;;;;;;;14.77;9.33;;;;;;;-1.35;82.78;99438.13;5114359;28;20214;-68
2022/03/01 07:20:43;;;;;;;14.47;8.67;;;;;;;-1.21;85.83;99431.16;5114666;28;20521;-67
2022/03/01 07:23:10;;;;;;;13.93;8.40;;;;;;;-1.07;82.50;99432.88;5114380;28;20298;-70
2022/03/01 07:25:37;;;;;;;12.23;8.27;;;;;;;-0.93;83.04;99433.69;5113968;28;20213;-68
2022/03/01 07:28:04;;;;;;;17.20;9.00;;;;;;;-0.85;79.95;99444.03;5114047;28;20660;-70
2022/03/01 07:30:32;;;;;;;15.47;8.83;;;;;;;-0.78;83.13;99448.34;5114003;28;20214;-68
2022/03/01 07:32:59;;;;;;;15.53;8.70;;;;;;;-0.69;79.33;99443.13;5113831;28;20672;-68
2022/03/01 07:35:26;;;;;;;14.87;8.20;;;;;;;-0.58;79.35;99439.59;5114089;28;20273;-68
2022/03/01 07:37:53;;;;;;;13.93;8.47;;;;;;;-0.50;80.42;99434.38;5113764;28;20224;-68
2022/03/01 07:40:22;;;;;;;15.27;8.50;;;;;;;-0.42;77.31;99443.88;5112312;28;20216;-68
2022/03/01 07:42:48;;;;;;;13.70;8.03;;;;;;;-0.34;77.12;99449.00;5114050;28;20568;-67
2022/03/01 07:45:15;;;;;;;16.43;8.53;;;;;;;-0.27;75.09;99456.75;5114042;28;20219;-68
2022/03/01 07:47:43;;;;;;;12.67;8.33;;;;;;;-0.16;76.37;99448.00;5112017;28;20211;-67
2022/03/01 07:50:10;;;;;;;14.73;8.90;;;;;;;-0.06;75.84;99447.09;5111955;28;20208;-67
2022/03/01 07:52:36;;;;;;;12.07;8.00;;;;;;;0.02;74.44;99452.25;5112578;28;20218;-68
2022/03/01 07:55:04;;;;;;;13.70;8.53;;;;;;;0.09;74.89;99457.41;5112448;28;20239;-67
2022/03/01 07:57:30;;;;;;;12.20;7.80;;;;;;;0.15;71.57;99448.69;5110906;28;20224;-67
2022/03/01 07:59:57;;;;;;;14.23;8.53;;;;;;;0.27;73.30;99459.88;5112068;28;20215;-67
2022/03/01 08:02:24;;;;;;;12.43;7.73;;;;;;;0.34;73.12;99448.53;5112356;28;20223;-69
2022/03/01 08:04:51;;;;;;;14.30;8.37;;;;;;;0.47;70.62;99452.75;5112069;28;20223;-69
2022/03/01 08:07:18;;;;;;;14.83;8.67;;;;;;;0.53;69.38;99447.50;5109725;28;20217;-68
2022/03/01 08:09:44;;;;;;;14.27;10.30;;;;;;;0.67;68.34;99449.97;5108764;28;20434;-67
2022/03/01 08:12:12;;;;;;;12.53;8.63;;;;;;;0.70;67.47;99440.41;5110069;28;20668;-68
2022/03/01 08:14:38;;;;;;;12.87;8.40;;;;;;;0.78;71.62;99438.59;5111189;28;20242;-68
2022/03/01 08:17:05;;;;;;;14.63;9.00;;;;;;;0.86;67.00;99435.94;5111071;28;20288;-71
2022/03/01 08:19:31;;;;;;;13.67;8.10;;;;;;;0.96;66.65;99430.59;5102507;28;20228;-68
2022/03/01 08:21:59;;;;;;;13.23;7.90;;;;;;;1.00;66.02;99434.03;5101116;28;20213;-67
2022/03/01 08:24:27;;;;;;;10.83;7.60;;;;;;;1.07;66.89;99431.34;5112375;28;20216;-68
2022/03/01 08:26:53;;;;;;;12.47;8.10;;;;;;;1.16;67.34;99425.19;5111766;28;20585;-71
2022/03/01 08:29:20;;;;;;;13.43;8.27;;;;;;;1.28;66.36;99415.47;5112214;28;20221;-70
2022/03/01 08:31:46;;;;;;;16.13;8.80;;;;;;;1.38;64.53;99414.47;5110416;28;20215;-70
2022/03/01 08:34:13;;;;;;;14.30;7.87;;;;;;;1.43;62.20;99415.28;5111816;28;20279;-68
2022/03/01 08:36:40;;;;;;;13.73;8.27;;;;;;;1.43;64.87;99417.91;5112718;28;20243;-69
2022/03/01 08:39:08;;;;;;;11.63;7.77;;;;;;;1.55;64.07;99420.34;5112295;28;20221;-69
2022/03/01 08:41:34;;;;;;;11.30;7.60;;;;;;;1.57;65.67;99418.56;5111472;28;20215;-70
2022/03/01 08:44:01;;;;;;;13.27;7.83;;;;;;;1.65;62.60;99410.66;5109399;28;20687;-70
2022/03/01 08:46:27;;;;;;;12.53;8.13;;;;;;;1.83;63.08;99413.84;5113007;28;20211;-71
2022/03/01 08:48:55;;;;;;;12.80;8.20;;;;;;;1.83;62.69;99411.25;5111408;28;20352;-70
2022/03/01 08:51:21;;;;;;;13.17;7.97;;;;;;;1.94;63.01;99419.78;5096868;28;20681;-70
2022/03/01 08:53:48;;;;;;;12.43;7.57;;;;;;;2.00;61.26;99411.88;5112060;28;20684;-69
2022/03/01 08:56:16;;;;;;;11.30;7.77;;;;;;;1.99;61.03;99402.31;5111547;28;20236;-70
2022/03/01 08:58:43;;;;;;;11.23;7.60;;;;;;;2.09;60.88;99414.31;5110829;28;20217;-70
2022/03/01 09:01:09;;;;;;;10.37;7.10;;;;;;;2.18;61.97;99413.31;5102930;28;20213;-69
2022/03/01 09:03:36;;;;;;;12.80;7.97;;;;;;;2.26;59.77;99412.31;5102437;28;20225;-68
2022/03/01 09:06:05;;;;;;;13.90;8.70;;;;;;;2.32;62.41;99407.00;5115934;28;20215;-69
2022/03/01 09:08:31;;;;;;;13.30;7.73;;;;;;;2.43;61.45;99393.75;5116042;28;20212;-69
2022/03/01 09:10:58;;;;;;;12.07;7.93;;;;;;;2.52;59.91;99393.63;5114970;28;20585;-69
2022/03/01 09:13:26;;;;;;;10.80;8.07;;;;;;;2.51;59.55;99394.53;5115764;28;20216;-69
2022/03/01 09:15:53;;;;;;;12.27;7.97;;;;;;;2.63;58.04;99384.72;5115941;28;20574;-69
2022/03/01 09:18:21;;;;;;;11.97;7.63;;;;;;;2.66;58.70;99382.06;5114985;28;20216;-71
2022/03/01 09:20:47;;;;;;;11.63;7.50;;;;;;;2.78;59.92;99380.97;5115923;28;20215;-69
2022/03/01 09:23:14;;;;;;;16.30;8.43;;;;;;;2.77;58.77;99374.91;5115984;28;20591;-69
2022/03/01 09:25:41;;;;;;;13.87;7.73;;;;;;;2.91;59.05;99378.09;5113140;28;20223;-70
2022/03/01 09:28:07;;;;;;;10.50;6.90;;;;;;;3.07;58.40;99376.06;5115634;28;20208;-68
2022/03/01 09:30:36;;;;;;;10.67;7.60;;;;;;;3.14;58.03;99378.53;5115190;28;20208;-68
2022/03/01 09:33:02;;;;;;;11.33;7.77;;;;;;;3.17;56.92;99370.59;5109533;28;20201;-69
2022/03/01 09:35:29;;;;;;;11.23;7.73;;;;;;;3.30;56.58;99369.47;5115351;28;20246;-69
2022/03/01 09:37:55;;;;;;;11.47;7.77;;;;;;;3.36;55.60;99373.72;5115121;28;20220;-69
2022/03/01 09:40:22;;;;;;;11.40;7.30;;;;;;;3.40;56.32;99372.72;5113879;28;20316;-69
2022/03/01 09:42:52;;;;;;;12.77;7.40;;;;;;;3.52;56.19;99373.34;5114736;28;20717;-67
2022/03/01 09:45:19;;;;;;;12.73;7.57;;;;;;;3.54;54.05;99361.09;5114724;28;20224;-69
2022/03/01 09:47:47;;;;;;;11.03;7.50;;;;;;;3.62;54.15;99364.38;5114107;28;20694;-68
2022/03/01 09:50:15;;;;;;;11.57;7.80;;;;;;;3.70;54.47;99365.09;5114499;28;20212;-67
2022/03/01 09:52:42;;;;;;;13.33;7.60;;;;;;;3.73;54.09;99366.78;5110458;28;20270;-69
2022/03/01 09:55:10;;;;;;;9.97;7.20;;;;;;;3.75;55.23;99360.63;5114115;28;20245;-69
2022/03/01 09:57:37;;;;;;;10.53;6.90;;;;;;;3.75;53.76;99360.63;5114953;28;20213;-70
2022/03/01 10:00:06;;;;;;;10.80;7.57;;;;;;;3.85;52.89;99361.28;5114289;28;20223;-73
2022/03/01 10:02:36;;;;;;;10.40;7.33;;;;;;;3.90;54.44;99355.03;5099331;28;20224;-71
2022/03/01 10:05:05;;;;;;;9.77;7.20;;;;;;;3.98;53.91;99350.47;5104230;28;20216;-71
2022/03/01 10:07:32;;;;;;;9.97;7.37;;;;;;;4.05;52.82;99346.84;5114401;28;20217;-73
2022/03/01 10:10:07;;;;;;;11.97;7.43;;;;;;;4.09;54.24;99356.31;5113175;28;20613;-71
2022/03/01 10:12:34;;;;;;;8.67;6.60;;;;;;;4.20;53.36;99353.44;5111851;28;20582;-71
2022/03/01 10:15:04;;;;;;;9.63;6.83;;;;;;;4.26;53.07;99359.38;5114140;28;20240;-74
2022/03/01 10:17:35;;;;;;;10.30;7.60;;;;;;;4.35;51.90;99346.06;5109778;28;20427;-73
2022/03/01 10:20:05;;;;;;;10.87;7.70;;;;;;;4.45;51.75;99352.78;5111698;28;20305;-71
2022/03/01 10:22:32;;;;;;;10.23;7.17;;;;;;;4.54;52.91;99339.47;5114287;28;20218;-71
2022/03/01 10:25:03;;;;;;;10.60;7.63;;;;;;;4.61;50.18;99338.41;5113477;28;20214;-72
2022/03/01 10:27:30;;;;;;;12.20;7.80;;;;;;;4.56;51.79;99329.81;5114411;28;20241;-69
2022/03/01 10:29:57;;;;;;;11.03;7.50;;;;;;;4.70;50.76;99329.47;5113784;28;20218;-68
2022/03/01 10:32:24;;;;;;;9.77;6.73;;;;;;;4.78;50.46;99333.59;5113158;28;20640;-67
2022/03/01 10:34:58;;;;;;;10.13;6.50;;;;;;;4.91;48.06;99328.84;5114227;28;20235;-71
2022/03/01 10:37:27;;;;;;;10.10;6.53;;;;;;;4.82;49.32;99329.97;5113924;28;20227;-70
2022/03/01 10:40:09;;;;;;;11.40;7.73;;;;;;;5.03;47.88;99329.38;5112699;28;20694;-70
2022/03/01 10:42:36;;;;;;;12.17;7.57;;;;;;;5.17;49.54;99327.22;5102806;28;20221;-69
2022/03/01 10:45:03;;;;;;;11.07;6.93;;;;;;;5.14;48.63;99326.44;5112475;28;20214;-69
2022/03/01 10:47:32;;;;;;;10.53;7.47;;;;;;;5.03;47.49;99329.38;5113090;28;20237;-69
2022/03/01 10:50:01;;;;;;;10.47;7.13;;;;;;;5.30;48.84;99328.59;5113417;28;20221;-69
2022/03/01 10:52:34;;;;;;;9.83;6.80;;;;;;;5.25;47.72;99322.59;5102355;28;20220;-68
2022/03/01 10:55:01;;;;;;;10.00;6.90;;;;;;;5.18;46.26;99318.44;5113075;28;20231;-68
2022/03/01 10:57:27;;;;;;;9.73;6.80;;;;;;;5.22;46.46;99325.34;5113839;28;20232;-68
2022/03/01 10:59:54;;;;;;;8.77;6.80;;;;;;;5.20;47.03;99315.78;5113247;28;20214;-68
2022/03/01 11:02:20;;;;;;;9.70;7.50;;;;;;;5.22;46.81;99313.97;5100617;28;20439;-67
2022/03/01 11:04:48;;;;;;;10.83;6.67;;;;;;;5.27;46.42;99318.19;5102937;28;20219;-71
2022/03/01 11:07:16;;;;;;;9.90;6.47;;;;;;;5.30;43.70;99318.09;5112626;28;20616;-70
2022/03/01 11:09:45;;;;;;;8.90;5.83;;;;;;;5.31;44.82;99318.97;5109461;28;20636;-68
2022/03/01 11:12:12;;;;;;;11.17;7.07;;;;;;;5.38;44.75;99312.63;5110895;28;20219;-68
2022/03/01 11:14:51;;;;;;;10.57;6.93;;;;;;;5.40;44.11;99303.81;5112336;28;20249;-69
2022/03/01 11:17:25;;;;;;;9.53;6.70;;;;;;;5.40;44.34;99306.44;5110050;28;20207;-70
2022/03/01 11:19:57;;;;;;;9.20;6.93;;;;;;;5.57;43.45;99296.28;5111976;28;20234;-69
2022/03/01 11:22:28;;;;;;;7.47;5.83;;;;;;;5.76;44.52;99291.31;5112350;28;20199;-71
2022/03/01 11:24:57;;;;;;;8.93;6.40;;;;;;;5.67;44.22;99287.22;5108451;28;20227;-69
2022/03/01 11:27:25;;;;;;;7.87;5.93;;;;;;;5.81;44.06;99289.47;5108844;28;20616;-71
2022/03/01 11:29:53;;;;;;;8.93;5.83;;;;;;;5.68;43.04;99288.09;5111965;28;20233;-68